sensor_id;sensor_type;location;lat;lon;timestamp;P1;durP1;ratioP1;P2;durP2;ratioP2
67514;SDS011;60646;55.802;37.032;2023-06-10T00:01:05;2.00;;;1.30;;
67514;SDS011;60646;55.802;37.032;2023-06-10T00:03:31;2.15;;;1.45;;
67514;SDS011;60646;55.802;37.032;2023-06-10T00:05:58;2.35;;;1.27;;
67514;SDS011;60646;55.802;37.032;2023-06-10T00:08:43;1.80;;;1.25;;
67514;SDS011;60646;55.802;37.032;2023-06-10T00:11:13;2.20;;;1.20;;
67514;SDS011;60646;55.802;37.032;2023-06-10T00:13:42;2.25;;;1.42;;
67514;SDS011;60646;55.802;37.032;2023-06-10T00:19:11;2.88;;;1.70;;
67514;SDS011;60646;55.802;37.032;2023-06-10T00:21:39;1.75;;;1.20;;
67514;SDS011;60646;55.802;37.032;2023-06-10T00:24:10;1.98;;;1.27;;
67514;SDS011;60646;55.802;37.032;2023-06-10T00:26:38;3.22;;;1.30;;
67514;SDS011;60646;55.802;37.032;2023-06-10T00:29:07;3.67;;;1.63;;
67514;SDS011;60646;55.802;37.032;2023-06-10T00:31:37;2.42;;;1.30;;
67514;SDS011;60646;55.802;37.032;2023-06-10T00:34:06;3.55;;;1.33;;
67514;SDS011;60646;55.802;37.032;2023-06-10T00:36:34;2.33;;;1.45;;
67514;SDS011;60646;55.802;37.032;2023-06-10T00:39:02;6.03;;;2.28;;
67514;SDS011;60646;55.802;37.032;2023-06-10T00:44:12;3.22;;;1.23;;
67514;SDS011;60646;55.802;37.032;2023-06-10T00:46:48;1.65;;;1.27;;
67514;SDS011;60646;55.802;37.032;2023-06-10T00:52:22;1.77;;;1.15;;
67514;SDS011;60646;55.802;37.032;2023-06-10T00:57:33;2.20;;;1.30;;
67514;SDS011;60646;55.802;37.032;2023-06-10T01:00:11;2.45;;;1.17;;
67514;SDS011;60646;55.802;37.032;2023-06-10T01:13:55;1.83;;;1.15;;
67514;SDS011;60646;55.802;37.032;2023-06-10T01:16:24;1.27;;;1.00;;
67514;SDS011;60646;55.802;37.032;2023-06-10T01:18:52;2.40;;;1.33;;
67514;SDS011;60646;55.802;37.032;2023-06-10T01:24:23;1.45;;;1.10;;
67514;SDS011;60646;55.802;37.032;2023-06-10T01:29:50;2.22;;;1.23;;
67514;SDS011;60646;55.802;37.032;2023-06-10T01:32:45;1.90;;;1.02;;
67514;SDS011;60646;55.802;37.032;2023-06-10T01:41:01;1.50;;;1.00;;
67514;SDS011;60646;55.802;37.032;2023-06-10T01:43:47;2.30;;;1.05;;
67514;SDS011;60646;55.802;37.032;2023-06-10T01:52:19;1.50;;;1.00;;
67514;SDS011;60646;55.802;37.032;2023-06-10T02:03:40;1.35;;;0.93;;
67514;SDS011;60646;55.802;37.032;2023-06-10T02:11:46;2.60;;;1.10;;
67514;SDS011;60646;55.802;37.032;2023-06-10T02:20:09;1.38;;;0.82;;
67514;SDS011;60646;55.802;37.032;2023-06-10T02:22:44;3.92;;;1.00;;
67514;SDS011;60646;55.802;37.032;2023-06-10T02:25:50;2.03;;;1.10;;
67514;SDS011;60646;55.802;37.032;2023-06-10T02:28:17;1.25;;;0.88;;
67514;SDS011;60646;55.802;37.032;2023-06-10T02:30:46;3.72;;;1.13;;
67514;SDS011;60646;55.802;37.032;2023-06-10T02:33:16;1.80;;;1.08;;
67514;SDS011;60646;55.802;37.032;2023-06-10T02:38:50;1.63;;;0.93;;
67514;SDS011;60646;55.802;37.032;2023-06-10T02:41:18;2.28;;;0.95;;
67514;SDS011;60646;55.802;37.032;2023-06-10T02:43:46;1.80;;;1.10;;
67514;SDS011;60646;55.802;37.032;2023-06-10T02:46:12;1.45;;;0.90;;
67514;SDS011;60646;55.802;37.032;2023-06-10T02:48:45;1.90;;;1.25;;
67514;SDS011;60646;55.802;37.032;2023-06-10T02:51:21;1.50;;;0.93;;
67514;SDS011;60646;55.802;37.032;2023-06-10T02:53:52;1.90;;;1.30;;
67514;SDS011;60646;55.802;37.032;2023-06-10T02:56:19;2.65;;;0.90;;
67514;SDS011;60646;55.802;37.032;2023-06-10T02:58:52;1.60;;;0.95;;
67514;SDS011;60646;55.802;37.032;2023-06-10T03:01:30;3.42;;;1.00;;
67514;SDS011;60646;55.802;37.032;2023-06-10T03:04:06;1.92;;;1.10;;
67514;SDS011;60646;55.802;37.032;2023-06-10T03:06:34;1.58;;;0.98;;
67514;SDS011;60646;55.802;37.032;2023-06-10T03:09:16;2.90;;;0.95;;
67514;SDS011;60646;55.802;37.032;2023-06-10T03:11:45;1.45;;;0.98;;
67514;SDS011;60646;55.802;37.032;2023-06-10T03:14:16;1.37;;;0.80;;
67514;SDS011;60646;55.802;37.032;2023-06-10T03:16:44;1.50;;;1.00;;
67514;SDS011;60646;55.802;37.032;2023-06-10T03:19:30;1.60;;;0.90;;
67514;SDS011;60646;55.802;37.032;2023-06-10T03:21:57;2.72;;;0.93;;
67514;SDS011;60646;55.802;37.032;2023-06-10T03:25:07;1.13;;;0.75;;
67514;SDS011;60646;55.802;37.032;2023-06-10T03:27:43;1.40;;;0.95;;
67514;SDS011;60646;55.802;37.032;2023-06-10T03:30:16;1.25;;;0.80;;
67514;SDS011;60646;55.802;37.032;2023-06-10T03:32:45;1.63;;;0.75;;
67514;SDS011;60646;55.802;37.032;2023-06-10T03:35:16;2.80;;;1.05;;
67514;SDS011;60646;55.802;37.032;2023-06-10T03:37:42;1.40;;;0.80;;
67514;SDS011;60646;55.802;37.032;2023-06-10T03:40:09;1.38;;;0.82;;
67514;SDS011;60646;55.802;37.032;2023-06-10T03:42:40;1.27;;;0.85;;
67514;SDS011;60646;55.802;37.032;2023-06-10T03:45:07;2.13;;;1.30;;
67514;SDS011;60646;55.802;37.032;2023-06-10T03:47:36;0.77;;;0.70;;
67514;SDS011;60646;55.802;37.032;2023-06-10T03:53:16;1.00;;;0.70;;
67514;SDS011;60646;55.802;37.032;2023-06-10T03:58:46;2.20;;;1.10;;
67514;SDS011;60646;55.802;37.032;2023-06-10T04:01:12;1.42;;;0.88;;
67514;SDS011;60646;55.802;37.032;2023-06-10T04:03:43;1.80;;;0.80;;
67514;SDS011;60646;55.802;37.032;2023-06-10T04:06:11;2.63;;;1.10;;
67514;SDS011;60646;55.802;37.032;2023-06-10T04:08:37;1.42;;;0.82;;
67514;SDS011;60646;55.802;37.032;2023-06-10T04:11:05;1.52;;;0.75;;
67514;SDS011;60646;55.802;37.032;2023-06-10T04:13:31;4.05;;;0.90;;
67514;SDS011;60646;55.802;37.032;2023-06-10T04:16:02;0.82;;;0.60;;
67514;SDS011;60646;55.802;37.032;2023-06-10T04:18:29;2.00;;;0.90;;
67514;SDS011;60646;55.802;37.032;2023-06-10T04:21:00;1.23;;;0.80;;
67514;SDS011;60646;55.802;37.032;2023-06-10T04:23:28;1.30;;;0.88;;
67514;SDS011;60646;55.802;37.032;2023-06-10T04:25:58;1.30;;;0.88;;
67514;SDS011;60646;55.802;37.032;2023-06-10T04:28:25;0.77;;;0.55;;
67514;SDS011;60646;55.802;37.032;2023-06-10T04:30:51;1.23;;;0.70;;
67514;SDS011;60646;55.802;37.032;2023-06-10T04:33:26;1.17;;;0.63;;
67514;SDS011;60646;55.802;37.032;2023-06-10T04:35:54;0.82;;;0.70;;
67514;SDS011;60646;55.802;37.032;2023-06-10T04:38:22;0.90;;;0.68;;
67514;SDS011;60646;55.802;37.032;2023-06-10T04:40:49;1.50;;;0.70;;
67514;SDS011;60646;55.802;37.032;2023-06-10T04:43:16;0.95;;;0.60;;
67514;SDS011;60646;55.802;37.032;2023-06-10T04:45:45;0.90;;;0.60;;
67514;SDS011;60646;55.802;37.032;2023-06-10T04:48:11;2.13;;;0.65;;
67514;SDS011;60646;55.802;37.032;2023-06-10T04:50:37;2.28;;;0.60;;
67514;SDS011;60646;55.802;37.032;2023-06-10T04:53:04;1.35;;;0.63;;
67514;SDS011;60646;55.802;37.032;2023-06-10T04:55:34;2.47;;;0.95;;
67514;SDS011;60646;55.802;37.032;2023-06-10T04:58:01;1.15;;;0.50;;
67514;SDS011;60646;55.802;37.032;2023-06-10T05:00:27;1.15;;;0.60;;
67514;SDS011;60646;55.802;37.032;2023-06-10T05:02:55;0.98;;;0.55;;
67514;SDS011;60646;55.802;37.032;2023-06-10T05:05:22;1.05;;;0.77;;
67514;SDS011;60646;55.802;37.032;2023-06-10T05:08:06;3.72;;;0.70;;
67514;SDS011;60646;55.802;37.032;2023-06-10T05:10:32;1.00;;;0.50;;
67514;SDS011;60646;55.802;37.032;2023-06-10T05:12:59;1.52;;;0.60;;
67514;SDS011;60646;55.802;37.032;2023-06-10T05:15:26;4.03;;;0.60;;
67514;SDS011;60646;55.802;37.032;2023-06-10T05:17:51;1.38;;;0.70;;
67514;SDS011;60646;55.802;37.032;2023-06-10T05:20:18;0.85;;;0.60;;
67514;SDS011;60646;55.802;37.032;2023-06-10T05:22:45;0.60;;;0.50;;
67514;SDS011;60646;55.802;37.032;2023-06-10T05:25:12;1.70;;;0.63;;
67514;SDS011;60646;55.802;37.032;2023-06-10T05:27:38;0.77;;;0.50;;
67514;SDS011;60646;55.802;37.032;2023-06-10T05:30:11;1.10;;;0.70;;
67514;SDS011;60646;55.802;37.032;2023-06-10T05:32:37;1.20;;;0.70;;
67514;SDS011;60646;55.802;37.032;2023-06-10T05:35:03;2.35;;;0.88;;
67514;SDS011;60646;55.802;37.032;2023-06-10T05:37:33;1.23;;;0.52;;
67514;SDS011;60646;55.802;37.032;2023-06-10T05:40:02;1.80;;;0.70;;
67514;SDS011;60646;55.802;37.032;2023-06-10T05:42:30;1.13;;;0.70;;
67514;SDS011;60646;55.802;37.032;2023-06-10T05:44:56;1.45;;;0.70;;
67514;SDS011;60646;55.802;37.032;2023-06-10T05:47:22;0.70;;;0.60;;
67514;SDS011;60646;55.802;37.032;2023-06-10T05:49:48;1.15;;;0.63;;
67514;SDS011;60646;55.802;37.032;2023-06-10T05:52:15;2.17;;;0.68;;
67514;SDS011;60646;55.802;37.032;2023-06-10T05:55:18;6.82;;;1.20;;
67514;SDS011;60646;55.802;37.032;2023-06-10T05:57:44;3.38;;;0.88;;
67514;SDS011;60646;55.802;37.032;2023-06-10T06:00:23;2.13;;;0.63;;
67514;SDS011;60646;55.802;37.032;2023-06-10T06:02:50;0.55;;;0.52;;
67514;SDS011;60646;55.802;37.032;2023-06-10T06:05:18;1.60;;;0.98;;
67514;SDS011;60646;55.802;37.032;2023-06-10T06:07:44;3.13;;;1.10;;
67514;SDS011;60646;55.802;37.032;2023-06-10T06:13:15;1.20;;;0.77;;
67514;SDS011;60646;55.802;37.032;2023-06-10T06:15:41;2.17;;;0.70;;
67514;SDS011;60646;55.802;37.032;2023-06-10T06:20:52;1.38;;;0.80;;
67514;SDS011;60646;55.802;37.032;2023-06-10T06:23:17;1.38;;;0.90;;
67514;SDS011;60646;55.802;37.032;2023-06-10T06:25:44;1.13;;;0.60;;
67514;SDS011;60646;55.802;37.032;2023-06-10T06:28:10;2.13;;;0.80;;
67514;SDS011;60646;55.802;37.032;2023-06-10T06:30:35;0.90;;;0.60;;
67514;SDS011;60646;55.802;37.032;2023-06-10T06:33:01;0.95;;;0.60;;
67514;SDS011;60646;55.802;37.032;2023-06-10T06:39:08;1.43;;;0.63;;
67514;SDS011;60646;55.802;37.032;2023-06-10T06:41:34;2.72;;;0.80;;
67514;SDS011;60646;55.802;37.032;2023-06-10T06:44:11;1.08;;;0.85;;
67514;SDS011;60646;55.802;37.032;2023-06-10T06:46:45;3.90;;;0.70;;
67514;SDS011;60646;55.802;37.032;2023-06-10T06:49:10;2.33;;;0.85;;
67514;SDS011;60646;55.802;37.032;2023-06-10T06:51:36;2.05;;;0.77;;
67514;SDS011;60646;55.802;37.032;2023-06-10T06:54:02;0.90;;;0.60;;
67514;SDS011;60646;55.802;37.032;2023-06-10T06:56:28;2.63;;;0.80;;
67514;SDS011;60646;55.802;37.032;2023-06-10T06:58:54;1.25;;;0.65;;
67514;SDS011;60646;55.802;37.032;2023-06-10T07:04:24;0.60;;;0.50;;
67514;SDS011;60646;55.802;37.032;2023-06-10T07:06:50;0.82;;;0.60;;
67514;SDS011;60646;55.802;37.032;2023-06-10T07:09:16;2.90;;;1.10;;
67514;SDS011;60646;55.802;37.032;2023-06-10T07:11:42;1.73;;;0.95;;
67514;SDS011;60646;55.802;37.032;2023-06-10T07:14:26;3.63;;;0.80;;
67514;SDS011;60646;55.802;37.032;2023-06-10T07:16:52;4.40;;;1.13;;
67514;SDS011;60646;55.802;37.032;2023-06-10T07:19:17;3.70;;;1.52;;
67514;SDS011;60646;55.802;37.032;2023-06-10T07:21:43;7.32;;;2.80;;
67514;SDS011;60646;55.802;37.032;2023-06-10T07:24:09;5.18;;;1.73;;
67514;SDS011;60646;55.802;37.032;2023-06-10T07:26:35;3.97;;;1.52;;
67514;SDS011;60646;55.802;37.032;2023-06-10T07:29:01;2.30;;;0.90;;
67514;SDS011;60646;55.802;37.032;2023-06-10T07:31:26;3.30;;;1.42;;
67514;SDS011;60646;55.802;37.032;2023-06-10T07:33:52;1.50;;;0.73;;
67514;SDS011;60646;55.802;37.032;2023-06-10T07:36:18;1.38;;;0.80;;
67514;SDS011;60646;55.802;37.032;2023-06-10T07:38:44;3.25;;;0.93;;
67514;SDS011;60646;55.802;37.032;2023-06-10T07:41:10;3.28;;;1.27;;
67514;SDS011;60646;55.802;37.032;2023-06-10T07:44:01;1.00;;;0.68;;
67514;SDS011;60646;55.802;37.032;2023-06-10T07:46:28;1.48;;;0.80;;
67514;SDS011;60646;55.802;37.032;2023-06-10T07:48:54;0.80;;;0.70;;
67514;SDS011;60646;55.802;37.032;2023-06-10T07:51:20;1.10;;;0.70;;
67514;SDS011;60646;55.802;37.032;2023-06-10T07:53:46;0.68;;;0.43;;
67514;SDS011;60646;55.802;37.032;2023-06-10T07:56:12;1.90;;;1.02;;
67514;SDS011;60646;55.802;37.032;2023-06-10T07:58:38;1.40;;;0.55;;
67514;SDS011;60646;55.802;37.032;2023-06-10T08:01:04;1.45;;;0.50;;
67514;SDS011;60646;55.802;37.032;2023-06-10T08:03:30;1.35;;;0.60;;
67514;SDS011;60646;55.802;37.032;2023-06-10T08:05:56;2.10;;;0.98;;
67514;SDS011;60646;55.802;37.032;2023-06-10T08:08:21;2.50;;;1.00;;
67514;SDS011;60646;55.802;37.032;2023-06-10T08:10:47;2.63;;;1.25;;
67514;SDS011;60646;55.802;37.032;2023-06-10T08:13:14;1.15;;;0.60;;
67514;SDS011;60646;55.802;37.032;2023-06-10T08:15:40;3.80;;;0.60;;
67514;SDS011;60646;55.802;37.032;2023-06-10T08:18:06;0.90;;;0.80;;
67514;SDS011;60646;55.802;37.032;2023-06-10T08:20:32;0.77;;;0.60;;
67514;SDS011;60646;55.802;37.032;2023-06-10T08:22:58;0.73;;;0.55;;
67514;SDS011;60646;55.802;37.032;2023-06-10T08:25:23;2.60;;;0.88;;
67514;SDS011;60646;55.802;37.032;2023-06-10T08:27:49;1.33;;;0.73;;
67514;SDS011;60646;55.802;37.032;2023-06-10T08:30:16;1.95;;;1.02;;
67514;SDS011;60646;55.802;37.032;2023-06-10T08:32:42;1.48;;;0.60;;
67514;SDS011;60646;55.802;37.032;2023-06-10T08:35:07;1.30;;;0.50;;
67514;SDS011;60646;55.802;37.032;2023-06-10T08:37:33;1.55;;;0.70;;
67514;SDS011;60646;55.802;37.032;2023-06-10T08:39:59;2.53;;;0.70;;
67514;SDS011;60646;55.802;37.032;2023-06-10T08:42:33;2.85;;;0.40;;
67514;SDS011;60646;55.802;37.032;2023-06-10T08:45:05;2.05;;;0.57;;
67514;SDS011;60646;55.802;37.032;2023-06-10T08:47:33;1.00;;;0.50;;
67514;SDS011;60646;55.802;37.032;2023-06-10T08:50:03;1.63;;;0.50;;
67514;SDS011;60646;55.802;37.032;2023-06-10T08:52:35;1.80;;;0.40;;
67514;SDS011;60646;55.802;37.032;2023-06-10T08:55:09;3.08;;;0.80;;
67514;SDS011;60646;55.802;37.032;2023-06-10T08:57:37;6.00;;;1.55;;
67514;SDS011;60646;55.802;37.032;2023-06-10T09:00:08;2.13;;;0.90;;
67514;SDS011;60646;55.802;37.032;2023-06-10T09:02:34;3.40;;;1.20;;
67514;SDS011;60646;55.802;37.032;2023-06-10T09:05:01;1.55;;;0.57;;
67514;SDS011;60646;55.802;37.032;2023-06-10T09:07:30;0.88;;;0.50;;
67514;SDS011;60646;55.802;37.032;2023-06-10T09:09:57;1.25;;;0.60;;
67514;SDS011;60646;55.802;37.032;2023-06-10T09:12:24;0.57;;;0.43;;
67514;SDS011;60646;55.802;37.032;2023-06-10T09:14:50;2.90;;;0.80;;
67514;SDS011;60646;55.802;37.032;2023-06-10T09:17:16;0.85;;;0.50;;
67514;SDS011;60646;55.802;37.032;2023-06-10T09:19:43;2.30;;;1.00;;
67514;SDS011;60646;55.802;37.032;2023-06-10T09:22:10;4.05;;;1.00;;
67514;SDS011;60646;55.802;37.032;2023-06-10T09:24:38;1.58;;;0.57;;
67514;SDS011;60646;55.802;37.032;2023-06-10T09:27:05;1.00;;;0.60;;
67514;SDS011;60646;55.802;37.032;2023-06-10T09:32:18;1.08;;;0.60;;
67514;SDS011;60646;55.802;37.032;2023-06-10T09:34:44;4.00;;;0.98;;
67514;SDS011;60646;55.802;37.032;2023-06-10T09:37:11;5.07;;;1.45;;
67514;SDS011;60646;55.802;37.032;2023-06-10T09:39:39;2.05;;;0.90;;
67514;SDS011;60646;55.802;37.032;2023-06-10T09:42:26;4.68;;;1.10;;
67514;SDS011;60646;55.802;37.032;2023-06-10T09:44:52;1.05;;;0.50;;
67514;SDS011;60646;55.802;37.032;2023-06-10T09:47:21;2.72;;;1.25;;
67514;SDS011;60646;55.802;37.032;2023-06-10T09:49:51;2.90;;;0.80;;
67514;SDS011;60646;55.802;37.032;2023-06-10T09:52:25;7.03;;;2.05;;
67514;SDS011;60646;55.802;37.032;2023-06-10T09:54:52;2.60;;;0.70;;
67514;SDS011;60646;55.802;37.032;2023-06-10T09:57:19;1.83;;;0.90;;
67514;SDS011;60646;55.802;37.032;2023-06-10T09:59:46;0.60;;;0.40;;
67514;SDS011;60646;55.802;37.032;2023-06-10T10:02:13;0.50;;;0.40;;
67514;SDS011;60646;55.802;37.032;2023-06-10T10:04:43;0.47;;;0.40;;
67514;SDS011;60646;55.802;37.032;2023-06-10T10:07:09;1.20;;;0.57;;
67514;SDS011;60646;55.802;37.032;2023-06-10T10:09:40;2.72;;;0.70;;
67514;SDS011;60646;55.802;37.032;2023-06-10T10:12:09;1.30;;;0.68;;
67514;SDS011;60646;55.802;37.032;2023-06-10T10:14:36;1.65;;;0.60;;
67514;SDS011;60646;55.802;37.032;2023-06-10T10:17:07;0.85;;;0.50;;
67514;SDS011;60646;55.802;37.032;2023-06-10T10:19:50;0.52;;;0.30;;
67514;SDS011;60646;55.802;37.032;2023-06-10T10:22:38;2.07;;;0.80;;
67514;SDS011;60646;55.802;37.032;2023-06-10T10:25:16;1.52;;;0.90;;
67514;SDS011;60646;55.802;37.032;2023-06-10T10:27:53;2.05;;;0.80;;
67514;SDS011;60646;55.802;37.032;2023-06-10T10:30:22;1.08;;;0.60;;
67514;SDS011;60646;55.802;37.032;2023-06-10T10:35:25;0.98;;;0.40;;
67514;SDS011;60646;55.802;37.032;2023-06-10T10:37:52;0.40;;;0.30;;
67514;SDS011;60646;55.802;37.032;2023-06-10T10:40:19;1.27;;;0.52;;
67514;SDS011;60646;55.802;37.032;2023-06-10T10:42:47;0.70;;;0.50;;
67514;SDS011;60646;55.802;37.032;2023-06-10T10:45:14;0.88;;;0.50;;
67514;SDS011;60646;55.802;37.032;2023-06-10T10:47:40;1.95;;;0.98;;
67514;SDS011;60646;55.802;37.032;2023-06-10T10:50:15;1.15;;;0.65;;
67514;SDS011;60646;55.802;37.032;2023-06-10T10:52:55;1.67;;;0.80;;
67514;SDS011;60646;55.802;37.032;2023-06-10T10:55:24;2.28;;;1.00;;
67514;SDS011;60646;55.802;37.032;2023-06-10T11:00:32;0.85;;;0.40;;
67514;SDS011;60646;55.802;37.032;2023-06-10T11:05:36;1.42;;;0.88;;
67514;SDS011;60646;55.802;37.032;2023-06-10T11:08:03;1.00;;;0.40;;
67514;SDS011;60646;55.802;37.032;2023-06-10T11:10:32;1.13;;;0.40;;
67514;SDS011;60646;55.802;37.032;2023-06-10T11:13:06;1.13;;;0.60;;
67514;SDS011;60646;55.802;37.032;2023-06-10T11:15:39;3.22;;;0.47;;
67514;SDS011;60646;55.802;37.032;2023-06-10T11:18:19;0.90;;;0.60;;
67514;SDS011;60646;55.802;37.032;2023-06-10T11:28:37;3.83;;;1.08;;
67514;SDS011;60646;55.802;37.032;2023-06-10T11:31:24;1.95;;;0.60;;
67514;SDS011;60646;55.802;37.032;2023-06-10T11:33:56;1.00;;;0.70;;
67514;SDS011;60646;55.802;37.032;2023-06-10T11:36:28;3.67;;;1.75;;
67514;SDS011;60646;55.802;37.032;2023-06-10T11:38:58;4.60;;;2.10;;
67514;SDS011;60646;55.802;37.032;2023-06-10T11:41:28;1.85;;;0.98;;
67514;SDS011;60646;55.802;37.032;2023-06-10T11:44:17;1.25;;;0.70;;
67514;SDS011;60646;55.802;37.032;2023-06-10T11:46:41;5.32;;;0.90;;
67514;SDS011;60646;55.802;37.032;2023-06-10T11:49:26;1.10;;;0.55;;
67514;SDS011;60646;55.802;37.032;2023-06-10T11:51:52;2.30;;;0.80;;
67514;SDS011;60646;55.802;37.032;2023-06-10T11:54:18;4.68;;;3.20;;
67514;SDS011;60646;55.802;37.032;2023-06-10T11:56:44;14.35;;;8.82;;
67514;SDS011;60646;55.802;37.032;2023-06-10T11:59:15;10.85;;;7.00;;
67514;SDS011;60646;55.802;37.032;2023-06-10T12:02:00;7.68;;;4.55;;
67514;SDS011;60646;55.802;37.032;2023-06-10T12:04:25;3.80;;;2.63;;
67514;SDS011;60646;55.802;37.032;2023-06-10T12:06:52;3.67;;;1.60;;
67514;SDS011;60646;55.802;37.032;2023-06-10T12:11:51;1.20;;;0.82;;
67514;SDS011;60646;55.802;37.032;2023-06-10T12:19:47;1.20;;;0.60;;
67514;SDS011;60646;55.802;37.032;2023-06-10T12:22:13;2.28;;;0.50;;
67514;SDS011;60646;55.802;37.032;2023-06-10T12:24:46;2.58;;;1.20;;
67514;SDS011;60646;55.802;37.032;2023-06-10T12:27:27;2.00;;;0.98;;
67514;SDS011;60646;55.802;37.032;2023-06-10T12:29:55;0.98;;;0.60;;
67514;SDS011;60646;55.802;37.032;2023-06-10T12:32:35;3.23;;;0.50;;
67514;SDS011;60646;55.802;37.032;2023-06-10T12:35:22;1.88;;;0.40;;
67514;SDS011;60646;55.802;37.032;2023-06-10T12:38:00;3.65;;;0.65;;
67514;SDS011;60646;55.802;37.032;2023-06-10T12:40:39;1.15;;;0.60;;
67514;SDS011;60646;55.802;37.032;2023-06-10T12:43:32;1.15;;;0.60;;
67514;SDS011;60646;55.802;37.032;2023-06-10T12:46:09;0.85;;;0.43;;
67514;SDS011;60646;55.802;37.032;2023-06-10T12:49:20;1.00;;;0.50;;
67514;SDS011;60646;55.802;37.032;2023-06-10T12:51:50;0.80;;;0.55;;
67514;SDS011;60646;55.802;37.032;2023-06-10T12:56:53;3.80;;;1.02;;
67514;SDS011;60646;55.802;37.032;2023-06-10T12:59:20;4.47;;;1.52;;
67514;SDS011;60646;55.802;37.032;2023-06-10T13:01:52;2.53;;;1.00;;
67514;SDS011;60646;55.802;37.032;2023-06-10T13:04:18;4.50;;;1.02;;
67514;SDS011;60646;55.802;37.032;2023-06-10T13:06:45;5.20;;;2.00;;
67514;SDS011;60646;55.802;37.032;2023-06-10T13:09:12;3.63;;;1.42;;
67514;SDS011;60646;55.802;37.032;2023-06-10T13:11:38;1.42;;;0.80;;
67514;SDS011;60646;55.802;37.032;2023-06-10T13:14:05;1.30;;;0.70;;
67514;SDS011;60646;55.802;37.032;2023-06-10T13:16:32;2.25;;;1.00;;
67514;SDS011;60646;55.802;37.032;2023-06-10T13:18:58;1.63;;;0.80;;
67514;SDS011;60646;55.802;37.032;2023-06-10T13:21:24;1.13;;;0.50;;
67514;SDS011;60646;55.802;37.032;2023-06-10T13:23:50;3.05;;;0.75;;
67514;SDS011;60646;55.802;37.032;2023-06-10T13:26:17;0.77;;;0.45;;
67514;SDS011;60646;55.802;37.032;2023-06-10T13:28:45;1.85;;;0.50;;
67514;SDS011;60646;55.802;37.032;2023-06-10T13:31:11;1.48;;;0.68;;
67514;SDS011;60646;55.802;37.032;2023-06-10T13:33:37;1.27;;;0.70;;
67514;SDS011;60646;55.802;37.032;2023-06-10T13:36:04;0.52;;;0.47;;
67514;SDS011;60646;55.802;37.032;2023-06-10T13:38:29;0.50;;;0.50;;
67514;SDS011;60646;55.802;37.032;2023-06-10T13:40:56;2.40;;;0.80;;
67514;SDS011;60646;55.802;37.032;2023-06-10T13:43:23;1.92;;;0.80;;
67514;SDS011;60646;55.802;37.032;2023-06-10T13:45:49;0.70;;;0.50;;
67514;SDS011;60646;55.802;37.032;2023-06-10T13:48:14;1.77;;;0.65;;
67514;SDS011;60646;55.802;37.032;2023-06-10T13:50:40;0.55;;;0.45;;
67514;SDS011;60646;55.802;37.032;2023-06-10T13:53:11;3.30;;;0.70;;
67514;SDS011;60646;55.802;37.032;2023-06-10T13:55:37;1.65;;;0.80;;
67514;SDS011;60646;55.802;37.032;2023-06-10T13:58:03;2.25;;;0.80;;
67514;SDS011;60646;55.802;37.032;2023-06-10T14:00:29;1.75;;;0.65;;
67514;SDS011;60646;55.802;37.032;2023-06-10T14:02:55;1.05;;;0.60;;
67514;SDS011;60646;55.802;37.032;2023-06-10T14:05:21;2.85;;;0.60;;
67514;SDS011;60646;55.802;37.032;2023-06-10T14:07:47;2.67;;;0.90;;
67514;SDS011;60646;55.802;37.032;2023-06-10T14:10:13;0.80;;;0.60;;
67514;SDS011;60646;55.802;37.032;2023-06-10T14:12:48;3.20;;;0.90;;
67514;SDS011;60646;55.802;37.032;2023-06-10T14:15:14;1.45;;;0.80;;
67514;SDS011;60646;55.802;37.032;2023-06-10T14:17:42;1.00;;;0.80;;
67514;SDS011;60646;55.802;37.032;2023-06-10T14:20:08;1.10;;;0.80;;
67514;SDS011;60646;55.802;37.032;2023-06-10T14:22:34;1.20;;;0.55;;
67514;SDS011;60646;55.802;37.032;2023-06-10T14:25:00;1.85;;;0.90;;
67514;SDS011;60646;55.802;37.032;2023-06-10T14:27:29;2.30;;;0.90;;
67514;SDS011;60646;55.802;37.032;2023-06-10T14:29:55;1.15;;;0.80;;
67514;SDS011;60646;55.802;37.032;2023-06-10T14:32:21;1.10;;;0.70;;
67514;SDS011;60646;55.802;37.032;2023-06-10T14:34:48;1.55;;;0.60;;
67514;SDS011;60646;55.802;37.032;2023-06-10T14:37:14;0.82;;;0.68;;
67514;SDS011;60646;55.802;37.032;2023-06-10T14:39:40;0.95;;;0.80;;
67514;SDS011;60646;55.802;37.032;2023-06-10T14:42:06;1.27;;;0.70;;
67514;SDS011;60646;55.802;37.032;2023-06-10T14:44:32;1.58;;;0.65;;
67514;SDS011;60646;55.802;37.032;2023-06-10T14:46:58;1.85;;;0.80;;
67514;SDS011;60646;55.802;37.032;2023-06-10T14:49:24;2.72;;;0.90;;
67514;SDS011;60646;55.802;37.032;2023-06-10T14:51:49;2.88;;;0.85;;
67514;SDS011;60646;55.802;37.032;2023-06-10T14:54:15;0.70;;;0.60;;
67514;SDS011;60646;55.802;37.032;2023-06-10T14:56:41;1.42;;;0.70;;
67514;SDS011;60646;55.802;37.032;2023-06-10T14:59:07;1.08;;;0.70;;
67514;SDS011;60646;55.802;37.032;2023-06-10T15:01:33;2.13;;;0.50;;
67514;SDS011;60646;55.802;37.032;2023-06-10T15:03:59;4.70;;;0.98;;
67514;SDS011;60646;55.802;37.032;2023-06-10T15:06:25;0.63;;;0.52;;
67514;SDS011;60646;55.802;37.032;2023-06-10T15:08:51;1.00;;;0.60;;
67514;SDS011;60646;55.802;37.032;2023-06-10T15:11:17;0.57;;;0.57;;
67514;SDS011;60646;55.802;37.032;2023-06-10T15:13:42;0.88;;;0.70;;
67514;SDS011;60646;55.802;37.032;2023-06-10T15:16:08;0.85;;;0.73;;
67514;SDS011;60646;55.802;37.032;2023-06-10T15:18:34;1.35;;;0.50;;
67514;SDS011;60646;55.802;37.032;2023-06-10T15:24:29;0.60;;;0.60;;
67514;SDS011;60646;55.802;37.032;2023-06-10T15:26:55;0.80;;;0.60;;
67514;SDS011;60646;55.802;37.032;2023-06-10T15:29:21;1.80;;;0.88;;
67514;SDS011;60646;55.802;37.032;2023-06-10T15:31:47;1.17;;;0.60;;
67514;SDS011;60646;55.802;37.032;2023-06-10T15:34:12;1.10;;;0.80;;
67514;SDS011;60646;55.802;37.032;2023-06-10T15:36:38;8.60;;;3.88;;
67514;SDS011;60646;55.802;37.032;2023-06-10T15:39:04;3.35;;;1.60;;
67514;SDS011;60646;55.802;37.032;2023-06-10T15:41:32;23.38;;;9.07;;
67514;SDS011;60646;55.802;37.032;2023-06-10T15:43:59;7.22;;;2.60;;
67514;SDS011;60646;55.802;37.032;2023-06-10T15:46:26;2.47;;;1.27;;
67514;SDS011;60646;55.802;37.032;2023-06-10T15:48:52;3.35;;;1.15;;
67514;SDS011;60646;55.802;37.032;2023-06-10T15:51:21;1.85;;;0.90;;
67514;SDS011;60646;55.802;37.032;2023-06-10T15:53:48;2.42;;;1.30;;
67514;SDS011;60646;55.802;37.032;2023-06-10T15:56:14;1.65;;;0.80;;
67514;SDS011;60646;55.802;37.032;2023-06-10T15:58:40;5.50;;;1.88;;
67514;SDS011;60646;55.802;37.032;2023-06-10T16:01:06;1.77;;;1.05;;
67514;SDS011;60646;55.802;37.032;2023-06-10T16:03:33;2.22;;;1.20;;
67514;SDS011;60646;55.802;37.032;2023-06-10T16:05:59;1.17;;;0.80;;
67514;SDS011;60646;55.802;37.032;2023-06-10T16:08:25;6.07;;;2.70;;
67514;SDS011;60646;55.802;37.032;2023-06-10T16:10:50;4.05;;;2.53;;
67514;SDS011;60646;55.802;37.032;2023-06-10T16:13:16;11.73;;;5.88;;
67514;SDS011;60646;55.802;37.032;2023-06-10T16:15:42;15.35;;;6.10;;
67514;SDS011;60646;55.802;37.032;2023-06-10T16:18:08;8.23;;;3.05;;
67514;SDS011;60646;55.802;37.032;2023-06-10T16:20:33;8.25;;;3.65;;
67514;SDS011;60646;55.802;37.032;2023-06-10T16:23:03;5.68;;;2.78;;
67514;SDS011;60646;55.802;37.032;2023-06-10T16:29:09;7.97;;;1.90;;
67514;SDS011;60646;55.802;37.032;2023-06-10T16:31:35;6.60;;;3.30;;
67514;SDS011;60646;55.802;37.032;2023-06-10T16:34:00;14.18;;;5.75;;
67514;SDS011;60646;55.802;37.032;2023-06-10T16:36:26;5.90;;;2.97;;
67514;SDS011;60646;55.802;37.032;2023-06-10T16:38:52;4.32;;;2.10;;
67514;SDS011;60646;55.802;37.032;2023-06-10T16:41:20;4.35;;;2.40;;
67514;SDS011;60646;55.802;37.032;2023-06-10T16:43:46;4.15;;;2.88;;